Time;durP1;ratioP1;P1;durP2;ratioP2;P2;SDS_P1;SDS_P2;PMS_P1;PMS_P2;Temp;Humidity;BMP_temperature;BMP_pressure;BME280_temperature;BME280_humidity;BME280_pressure;Samples;Min_cycle;Max_cycle;Signal;HPM_P1;HPM_P2
2023/10/23 00:02:19;;;;;;;3.33;1.40;;;11.70;99.90;;;;;;5185570;28;20454;-49
2023/10/23 00:04:50;;;;;;;0.83;0.83;;;11.80;99.90;;;;;;5186278;28;20435;-50
2023/10/23 00:07:20;;;;;;;1.10;1.10;;;11.90;99.90;;;;;;5184689;28;20810;-49
2023/10/23 00:09:51;;;;;;;2.60;1.53;;;11.90;99.90;;;;;;5182652;28;20212;-49
2023/10/23 00:12:23;;;;;;;1.53;1.10;;;11.80;99.90;;;;;;5178989;28;20199;-50
2023/10/23 00:14:54;;;;;;;3.60;1.57;;;11.80;99.90;;;;;;5176741;28;20208;-49
2023/10/23 00:17:24;;;;;;;1.00;1.00;;;11.70;99.90;;;;;;5182340;28;20439;-48
2023/10/23 00:19:55;;;;;;;5.53;1.50;;;11.60;99.90;;;;;;5177472;28;20800;-49
2023/10/23 00:22:26;;;;;;;1.07;1.03;;;11.50;99.90;;;;;;5197661;28;20184;-50
2023/10/23 00:24:56;;;;;;;1.73;1.63;;;11.40;99.90;;;;;;5183117;28;20188;-50
2023/10/23 00:27:27;;;;;;;3.87;1.43;;;11.30;99.90;;;;;;5184280;28;20196;-49
2023/10/23 00:29:58;;;;;;;2.07;1.97;;;11.20;99.90;;;;;;5182168;28;20234;-50
2023/10/23 00:32:29;;;;;;;3.10;2.00;;;11.20;99.90;;;;;;5184898;28;20645;-50
2023/10/23 00:35:00;;;;;;;1.00;1.00;;;11.10;99.90;;;;;;5187143;28;20490;-50
2023/10/23 00:37:34;;;;;;;1.13;1.03;;;11.00;99.90;;;;;;5187716;28;20188;-50
2023/10/23 00:40:06;;;;;;;4.07;1.30;;;10.90;99.90;;;;;;5186732;28;20651;-49
2023/10/23 00:42:36;;;;;;;0.97;0.97;;;10.80;99.90;;;;;;5181222;28;20522;-49
2023/10/23 00:45:07;;;;;;;1.63;1.50;;;10.70;99.90;;;;;;5185450;28;20526;-50
2023/10/23 00:47:38;;;;;;;1.03;1.03;;;10.70;99.90;;;;;;5185677;28;20196;-49
2023/10/23 00:50:15;;;;;;;2.33;0.97;;;10.60;99.90;;;;;;5182097;28;21009;-49
2023/10/23 00:52:45;;;;;;;1.00;1.00;;;10.60;99.90;;;;;;5185420;28;21994;-49
2023/10/23 00:55:16;;;;;;;3.17;1.90;;;10.50;99.90;;;;;;5186841;28;20518;-49
2023/10/23 00:57:47;;;;;;;2.40;1.50;;;10.50;99.90;;;;;;5184226;28;20571;-49
2023/10/23 01:00:19;;;;;;;1.10;1.07;;;10.50;99.90;;;;;;5179763;28;20442;-49
2023/10/23 01:02:50;;;;;;;1.23;1.20;;;10.40;99.90;;;;;;5184715;28;20188;-49
2023/10/23 01:05:23;;;;;;;1.50;1.20;;;10.30;99.90;;;;;;5171536;28;20506;-49
2023/10/23 01:07:55;;;;;;;1.50;1.50;;;10.30;99.90;;;;;;5166908;28;20455;-49
2023/10/23 01:10:26;;;;;;;1.87;1.77;;;10.30;99.90;;;;;;5181621;28;20463;-52
2023/10/23 01:12:57;;;;;;;1.53;1.27;;;10.20;99.90;;;;;;5182675;28;20454;-49
2023/10/23 01:15:27;;;;;;;1.53;1.20;;;10.10;99.90;;;;;;5181342;28;20272;-48
2023/10/23 01:17:59;;;;;;;1.00;1.00;;;10.10;99.90;;;;;;5183201;28;20203;-49
2023/10/23 01:20:31;;;;;;;1.40;1.40;;;10.00;99.90;;;;;;5184124;28;20180;-49
2023/10/23 01:23:02;;;;;;;2.20;1.63;;;10.00;99.90;;;;;;5184903;28;20439;-49
2023/10/23 01:25:33;;;;;;;2.43;1.37;;;10.00;99.90;;;;;;5185518;28;20513;-49
2023/10/23 01:28:05;;;;;;;6.67;1.47;;;10.00;99.90;;;;;;5182112;28;20981;-48
2023/10/23 01:30:36;;;;;;;1.07;1.00;;;10.00;99.90;;;;;;5181393;28;20290;-49
2023/10/23 01:33:06;;;;;;;1.03;1.00;;;9.90;99.90;;;;;;5184308;28;20518;-50
2023/10/23 01:35:42;;;;;;;3.67;1.33;;;9.90;99.90;;;;;;5182424;28;20266;-49
2023/10/23 01:38:14;;;;;;;1.63;1.50;;;9.80;99.90;;;;;;5184504;28;20207;-50
2023/10/23 01:40:44;;;;;;;1.30;1.20;;;9.80;99.90;;;;;;5179838;28;20836;-48
2023/10/23 01:43:15;;;;;;;3.60;1.30;;;9.80;99.90;;;;;;5180912;28;20443;-49
2023/10/23 01:45:46;;;;;;;3.97;1.60;;;9.70;99.90;;;;;;5181222;28;20319;-50
2023/10/23 01:48:16;;;;;;;1.37;1.27;;;9.70;99.90;;;;;;5183781;28;20227;-50
2023/10/23 01:50:47;;;;;;;1.40;1.40;;;9.70;99.90;;;;;;5176628;28;20607;-49
2023/10/23 01:53:18;;;;;;;1.27;1.27;;;9.70;99.90;;;;;;5179715;28;20180;-48
2023/10/23 01:55:49;;;;;;;1.70;1.17;;;9.60;99.90;;;;;;5185267;28;20198;-49
2023/10/23 01:58:19;;;;;;;2.70;1.60;;;9.60;99.90;;;;;;5163044;28;20207;-48
2023/10/23 02:00:51;;;;;;;1.80;1.80;;;9.60;99.90;;;;;;5178574;28;20177;-49
2023/10/23 02:03:21;;;;;;;2.20;2.10;;;9.60;99.90;;;;;;5184460;28;20220;-49
2023/10/23 02:05:53;;;;;;;2.80;2.30;;;9.60;99.90;;;;;;5184876;28;20469;-49
2023/10/23 02:08:23;;;;;;;2.10;2.00;;;9.70;99.90;;;;;;5175850;28;20304;-49
2023/10/23 02:10:54;;;;;;;4.03;2.80;;;9.70;99.90;;;;;;5198697;28;21078;-48
2023/10/23 02:13:25;;;;;;;2.50;2.00;;;9.70;99.90;;;;;;5179053;28;20184;-49
2023/10/23 02:15:58;;;;;;;1.43;1.33;;;9.70;99.90;;;;;;5179731;28;20207;-50
2023/10/23 02:18:29;;;;;;;2.57;2.23;;;9.70;99.90;;;;;;5175313;28;20295;-49
2023/10/23 02:21:03;;;;;;;3.53;2.00;;;9.70;99.90;;;;;;5178783;28;20449;-50
2023/10/23 02:23:34;;;;;;;6.23;2.53;;;9.80;99.90;;;;;;5179812;28;20184;-48
2023/10/23 02:26:04;;;;;;;2.20;2.10;;;9.80;99.90;;;;;;5180285;28;21074;-49
2023/10/23 02:28:41;;;;;;;1.87;1.77;;;9.90;99.90;;;;;;5183396;28;20208;-49
2023/10/23 02:31:12;;;;;;;2.63;2.40;;;9.90;99.90;;;;;;5178493;28;20218;-49
2023/10/23 02:33:43;;;;;;;8.07;2.67;;;9.90;99.90;;;;;;5183816;28;20446;-49
2023/10/23 02:36:15;;;;;;;1.83;1.67;;;9.90;99.90;;;;;;5181454;28;20447;-49
2023/10/23 02:38:49;;;;;;;1.63;1.53;;;9.90;99.90;;;;;;5163039;28;20466;-48
2023/10/23 02:41:20;;;;;;;2.30;1.90;;;9.80;99.90;;;;;;5179634;28;20443;-49
2023/10/23 02:43:50;;;;;;;2.23;2.03;;;9.80;99.90;;;;;;5183246;28;20450;-48
2023/10/23 02:46:21;;;;;;;3.50;1.70;;;9.80;99.90;;;;;;5180456;28;20196;-49
2023/10/23 02:48:52;;;;;;;2.07;2.00;;;9.80;99.90;;;;;;5182291;28;20231;-48
2023/10/23 02:51:22;;;;;;;2.23;2.03;;;9.80;99.90;;;;;;5183185;28;20290;-50
2023/10/23 02:53:53;;;;;;;1.40;1.40;;;9.90;99.90;;;;;;5181662;28;20188;-49
2023/10/23 02:56:27;;;;;;;1.30;1.20;;;10.00;99.90;;;;;;5179041;28;20633;-49
2023/10/23 02:59:00;;;;;;;5.83;1.97;;;10.10;99.90;;;;;;5184268;28;20216;-48
2023/10/23 03:01:31;;;;;;;3.40;1.43;;;10.20;99.90;;;;;;5179751;28;20451;-48
2023/10/23 03:04:02;;;;;;;5.00;1.97;;;10.20;99.90;;;;;;5183976;28;20451;-49
2023/10/23 03:06:32;;;;;;;1.13;1.13;;;10.30;99.90;;;;;;5169270;28;20587;-49
2023/10/23 03:09:04;;;;;;;1.80;1.60;;;10.30;99.90;;;;;;5183437;28;20291;-50
2023/10/23 03:11:35;;;;;;;2.07;1.90;;;10.30;99.90;;;;;;5181628;28;20220;-49
2023/10/23 03:14:08;;;;;;;3.47;1.97;;;10.30;99.90;;;;;;5181211;28;20454;-49
2023/10/23 03:16:39;;;;;;;1.90;1.80;;;10.20;99.90;;;;;;5184774;28;20440;-49
2023/10/23 03:19:09;;;;;;;1.37;1.20;;;10.10;99.90;;;;;;5183673;28;21084;-49
2023/10/23 03:21:46;;;;;;;4.30;1.50;;;10.00;99.90;;;;;;5184839;28;20192;-49
2023/10/23 03:24:18;;;;;;;3.13;1.77;;;9.90;99.90;;;;;;5186607;28;20191;-48
2023/10/23 03:26:51;;;;;;;1.60;1.50;;;9.80;99.90;;;;;;5186871;28;20730;-49
2023/10/23 03:29:22;;;;;;;1.97;1.87;;;9.80;99.90;;;;;;5181931;28;20516;-50
2023/10/23 03:31:53;;;;;;;1.90;1.90;;;9.70;99.90;;;;;;5182322;28;20478;-49
2023/10/23 03:34:27;;;;;;;2.30;1.93;;;9.70;99.90;;;;;;5185726;28;20763;-50
2023/10/23 03:36:57;;;;;;;2.10;2.07;;;9.60;99.90;;;;;;5184972;28;20443;-49
2023/10/23 03:39:31;;;;;;;1.50;1.40;;;9.60;99.90;;;;;;5186809;28;20513;-48
2023/10/23 03:42:05;;;;;;;1.60;1.60;;;9.50;99.90;;;;;;5179548;28;20551;-48
2023/10/23 03:44:36;;;;;;;1.97;1.97;;;9.50;99.90;;;;;;5185767;28;20486;-49
2023/10/23 03:47:07;;;;;;;1.80;1.80;;;9.40;99.90;;;;;;5179803;28;20543;-49
2023/10/23 03:49:38;;;;;;;1.67;1.57;;;9.40;99.90;;;;;;5177856;28;20521;-49
2023/10/23 03:52:17;;;;;;;1.30;1.30;;;9.40;99.90;;;;;;5186146;28;20657;-49
2023/10/23 03:54:48;;;;;;;1.67;1.57;;;9.30;99.90;;;;;;5185804;28;21010;-49
2023/10/23 03:57:19;;;;;;;1.60;1.50;;;9.30;99.90;;;;;;5184297;28;20431;-49
2023/10/23 03:59:49;;;;;;;2.23;2.00;;;9.30;99.90;;;;;;5180768;28;20207;-49
2023/10/23 04:02:20;;;;;;;1.70;1.60;;;9.20;99.90;;;;;;5186786;28;20184;-48
2023/10/23 04:04:51;;;;;;;2.27;2.17;;;9.20;99.90;;;;;;5185067;28;20188;-49
2023/10/23 04:07:22;;;;;;;2.20;2.10;;;9.10;99.90;;;;;;5180995;28;20458;-49
2023/10/23 04:09:56;;;;;;;2.20;2.10;;;9.10;99.90;;;;;;5177227;28;20266;-49
2023/10/23 04:12:37;;;;;;;2.63;2.50;;;9.10;99.90;;;;;;5180139;28;20488;-48
2023/10/23 04:15:08;;;;;;;2.20;2.10;;;9.10;99.90;;;;;;5163496;28;20448;-50
2023/10/23 04:17:39;;;;;;;3.00;2.80;;;9.10;99.90;;;;;;5181397;28;20454;-49
2023/10/23 04:20:10;;;;;;;4.80;2.73;;;9.10;99.90;;;;;;5180630;28;20586;-49
2023/10/23 04:22:50;;;;;;;2.67;2.47;;;9.10;99.90;;;;;;5179531;28;20248;-49
2023/10/23 04:25:21;;;;;;;3.87;3.10;;;9.10;99.90;;;;;;5183716;28;20943;-49
2023/10/23 04:27:52;;;;;;;3.53;3.23;;;9.00;99.90;;;;;;5183901;28;20459;-49
2023/10/23 04:30:22;;;;;;;3.63;3.30;;;9.00;99.90;;;;;;5178054;28;20697;-49
2023/10/23 04:32:53;;;;;;;4.40;4.00;;;9.10;99.90;;;;;;5178993;28;20188;-48
2023/10/23 04:35:24;;;;;;;5.23;4.30;;;9.10;99.90;;;;;;5186462;28;20231;-49
2023/10/23 04:38:02;;;;;;;4.87;4.30;;;9.00;99.90;;;;;;5162847;28;20232;-50
2023/10/23 04:40:33;;;;;;;4.63;4.33;;;9.10;99.90;;;;;;5176982;28;20197;-47
2023/10/23 04:43:04;;;;;;;7.93;3.70;;;9.10;99.90;;;;;;5189278;28;20454;-48
2023/10/23 04:45:38;;;;;;;3.93;3.70;;;9.10;99.90;;;;;;5188192;28;20200;-49
2023/10/23 04:48:09;;;;;;;4.53;4.13;;;9.10;99.90;;;;;;5189070;28;20463;-50
2023/10/23 04:50:40;;;;;;;5.10;4.63;;;9.00;99.90;;;;;;5187722;28;20466;-49
2023/10/23 04:53:11;;;;;;;8.87;5.43;;;9.00;99.90;;;;;;5188333;28;20431;-49
2023/10/23 04:55:41;;;;;;;10.83;5.67;;;9.10;99.90;;;;;;5184034;28;20173;-48
2023/10/23 04:58:12;;;;;;;7.83;5.00;;;9.00;99.90;;;;;;5186967;28;20195;-49
2023/10/23 05:00:44;;;;;;;11.10;5.60;;;9.00;99.90;;;;;;5191172;28;20188;-50
2023/10/23 05:03:16;;;;;;;4.87;4.47;;;9.00;99.90;;;;;;5189061;28;20220;-49
2023/10/23 05:06:01;;;;;;;6.37;4.33;;;9.00;99.90;;;;;;5190554;28;20435;-49
2023/10/23 05:08:32;;;;;;;4.57;4.03;;;9.00;99.90;;;;;;5189463;28;20458;-48
2023/10/23 05:11:10;;;;;;;3.90;3.60;;;8.90;99.90;;;;;;5190896;28;20463;-49
2023/10/23 05:13:41;;;;;;;5.63;4.47;;;8.90;99.90;;;;;;5183191;28;20342;-50
2023/10/23 05:16:12;;;;;;;4.97;4.57;;;8.80;99.90;;;;;;5188890;28;20546;-49
2023/10/23 05:18:43;;;;;;;6.80;4.40;;;8.80;99.90;;;;;;5187211;28;20203;-48
2023/10/23 05:21:14;;;;;;;5.63;4.97;;;8.90;99.90;;;;;;5189102;28;20584;-49
2023/10/23 05:23:45;;;;;;;5.73;5.20;;;8.80;99.90;;;;;;5186761;28;20307;-49
2023/10/23 05:26:16;;;;;;;9.70;6.00;;;8.80;99.90;;;;;;5183560;28;20207;-49
2023/10/23 05:28:46;;;;;;;7.33;6.10;;;8.80;99.90;;;;;;5185805;28;20454;-49
2023/10/23 05:31:18;;;;;;;5.37;4.97;;;8.80;99.90;;;;;;5189733;28;20220;-50
2023/10/23 05:33:49;;;;;;;6.20;5.40;;;8.90;99.90;;;;;;5186554;28;20212;-49
2023/10/23 05:36:19;;;;;;;6.37;5.73;;;8.80;99.90;;;;;;5189011;28;20538;-48
2023/10/23 05:38:59;;;;;;;12.07;7.03;;;8.80;99.90;;;;;;5193421;28;20530;-49
2023/10/23 05:41:30;;;;;;;10.20;7.50;;;8.80;99.90;;;;;;5192348;28;20585;-48
2023/10/23 05:44:01;;;;;;;7.70;6.87;;;8.80;99.90;;;;;;5191820;28;20441;-50
2023/10/23 05:46:31;;;;;;;10.27;7.80;;;8.80;99.90;;;;;;5187751;28;20658;-49
2023/10/23 05:49:02;;;;;;;7.73;6.87;;;8.80;99.90;;;;;;5174369;28;20258;-50
2023/10/23 05:51:33;;;;;;;7.17;5.67;;;8.80;99.90;;;;;;5163233;28;20258;-50
2023/10/23 05:54:04;;;;;;;5.83;5.23;;;8.80;99.90;;;;;;5176990;28;20185;-48
2023/10/23 05:56:35;;;;;;;4.30;3.90;;;8.70;99.90;;;;;;5187077;28;20191;-49
2023/10/23 05:59:06;;;;;;;5.60;5.10;;;8.70;99.90;;;;;;5184718;28;20793;-49
2023/10/23 06:01:37;;;;;;;11.53;5.17;;;8.70;99.90;;;;;;5182347;28;20517;-49
2023/10/23 06:04:08;;;;;;;7.77;5.17;;;8.70;99.90;;;;;;5183656;28;20510;-48
2023/10/23 06:06:38;;;;;;;7.10;5.17;;;8.70;99.90;;;;;;5182354;28;20187;-49
2023/10/23 06:09:09;;;;;;;11.73;5.57;;;8.80;99.90;;;;;;5176369;28;20294;-49
2023/10/23 06:11:40;;;;;;;9.60;6.83;;;8.90;99.90;;;;;;5175134;28;20204;-49
2023/10/23 06:14:11;;;;;;;7.97;7.17;;;9.00;99.90;;;;;;5180365;28;20282;-49
2023/10/23 06:16:41;;;;;;;8.43;6.00;;;9.10;99.90;;;;;;5184788;28;20176;-50
2023/10/23 06:19:12;;;;;;;7.40;6.43;;;9.20;99.90;;;;;;5163721;28;20258;-51
2023/10/23 06:21:43;;;;;;;8.77;5.53;;;9.30;99.90;;;;;;5175904;28;20196;-50
2023/10/23 06:24:15;;;;;;;10.43;7.10;;;9.40;99.90;;;;;;5185249;28;20196;-50
2023/10/23 06:26:45;;;;;;;7.40;6.13;;;9.60;99.90;;;;;;5181844;28;21695;-50
2023/10/23 06:29:16;;;;;;;12.43;6.53;;;10.20;99.90;;;;;;5178464;28;20477;-49
2023/10/23 06:31:50;;;;;;;6.97;6.37;;;10.30;99.90;;;;;;5178259;28;20196;-49
2023/10/23 06:34:20;;;;;;;5.77;5.17;;;10.20;99.90;;;;;;5190049;28;20181;-49
2023/10/23 06:36:51;;;;;;;9.90;6.50;;;10.10;99.90;;;;;;5172220;28;20489;-50
2023/10/23 06:39:21;;;;;;;11.23;5.67;;;10.10;99.90;;;;;;5177800;28;20196;-49
2023/10/23 06:41:54;;;;;;;11.43;7.10;;;10.10;99.90;;;;;;5187631;28;20703;-51
2023/10/23 06:44:25;;;;;;;6.00;5.50;;;10.10;99.90;;;;;;5185055;28;20335;-49
2023/10/23 06:46:56;;;;;;;6.50;5.90;;;10.30;99.90;;;;;;5189445;28;20570;-51
2023/10/23 06:49:27;;;;;;;7.80;6.77;;;10.40;99.90;;;;;;5192701;28;20501;-49
2023/10/23 06:52:00;;;;;;;10.53;7.17;;;10.50;99.90;;;;;;5187396;28;20230;-49
2023/10/23 06:54:31;;;;;;;6.57;5.97;;;10.60;99.90;;;;;;5185393;28;20195;-50
2023/10/23 06:57:11;;;;;;;7.10;6.40;;;10.70;99.90;;;;;;5188603;28;20423;-50
2023/10/23 06:59:42;;;;;;;11.13;6.63;;;10.90;99.90;;;;;;5192882;28;20192;-50
2023/10/23 07:02:15;;;;;;;13.67;8.77;;;11.10;99.90;;;;;;5189370;28;20435;-50
2023/10/23 07:04:55;;;;;;;9.07;7.07;;;11.20;99.90;;;;;;5187898;28;20195;-49
2023/10/23 07:07:28;;;;;;;11.60;9.07;;;11.20;99.90;;;;;;5194185;28;20522;-50
2023/10/23 07:09:59;;;;;;;11.83;6.30;;;11.20;99.90;;;;;;5187829;28;21051;-50
2023/10/23 07:12:29;;;;;;;17.63;11.83;;;11.30;99.90;;;;;;5186031;28;20431;-49
2023/10/23 07:15:01;;;;;;;29.70;19.77;;;11.50;99.90;;;;;;5188295;28;20172;-49
2023/10/23 07:17:32;;;;;;;13.17;6.67;;;11.60;99.90;;;;;;5187986;28;20206;-51
2023/10/23 07:20:06;;;;;;;8.47;6.53;;;11.40;99.90;;;;;;5190753;28;20431;-50
2023/10/23 07:22:37;;;;;;;10.50;7.70;;;11.40;99.90;;;;;;5189743;28;20184;-49
2023/10/23 07:25:08;;;;;;;12.77;8.93;;;11.50;99.90;;;;;;5189666;28;21126;-51
2023/10/23 07:27:41;;;;;;;9.70;8.70;;;11.60;99.90;;;;;;5188718;28;20184;-51
2023/10/23 07:30:13;;;;;;;10.63;8.80;;;11.70;99.90;;;;;;5186580;28;20566;-50
2023/10/23 07:32:47;;;;;;;10.17;8.10;;;11.80;99.90;;;;;;5186067;28;20908;-51
2023/10/23 07:35:20;;;;;;;25.57;9.10;;;12.00;99.90;;;;;;5188039;28;20431;-49
2023/10/23 07:37:50;;;;;;;8.87;7.67;;;12.10;99.90;;;;;;5189631;28;20509;-49
2023/10/23 07:40:21;;;;;;;8.47;5.90;;;12.20;99.90;;;;;;5189243;28;20446;-51
2023/10/23 07:42:52;;;;;;;7.10;5.73;;;12.40;99.90;;;;;;5187254;28;20189;-50
2023/10/23 07:45:23;;;;;;;9.23;6.30;;;12.50;99.90;;;;;;5189480;28;20279;-50
2023/10/23 07:47:54;;;;;;;7.13;5.60;;;12.60;99.90;;;;;;5192595;28;20562;-49
2023/10/23 07:50:26;;;;;;;7.97;5.67;;;12.60;99.90;;;;;;5173647;28;20216;-49
2023/10/23 07:52:57;;;;;;;9.07;6.20;;;12.70;99.90;;;;;;5191782;28;20188;-50
2023/10/23 07:55:27;;;;;;;9.53;5.70;;;12.70;99.90;;;;;;5193514;28;20508;-49
2023/10/23 07:57:58;;;;;;;12.93;6.93;;;12.70;99.90;;;;;;5191204;28;20295;-50
2023/10/23 08:00:29;;;;;;;6.50;5.80;;;12.80;99.90;;;;;;5190577;28;20228;-50
2023/10/23 08:03:02;;;;;;;6.83;5.70;;;12.90;99.90;;;;;;5195801;28;20219;-49
2023/10/23 08:05:33;;;;;;;5.70;5.20;;;13.00;99.90;;;;;;5192255;28;20627;-49
2023/10/23 08:08:04;;;;;;;6.37;5.50;;;13.10;99.90;;;;;;5191559;28;20544;-51
2023/10/23 08:10:35;;;;;;;10.47;6.60;;;13.20;99.90;;;;;;5190818;28;20320;-49
2023/10/23 08:13:06;;;;;;;6.20;5.70;;;13.20;99.90;;;;;;5190364;28;20187;-49
2023/10/23 08:15:43;;;;;;;6.77;5.97;;;13.20;99.90;;;;;;5190362;28;20185;-50
2023/10/23 08:18:13;;;;;;;8.33;5.47;;;13.20;99.90;;;;;;5184036;28;20207;-50
2023/10/23 08:20:44;;;;;;;7.90;5.77;;;13.10;99.90;;;;;;5189547;28;20780;-51
2023/10/23 08:23:15;;;;;;;9.87;6.73;;;13.10;99.90;;;;;;5185082;28;20534;-51
2023/10/23 08:25:45;;;;;;;6.80;6.20;;;13.20;99.90;;;;;;5185555;28;20683;-48
2023/10/23 08:28:16;;;;;;;7.10;5.80;;;13.10;99.90;;;;;;5181782;28;20248;-49
2023/10/23 08:30:47;;;;;;;6.27;5.73;;;13.20;99.90;;;;;;5183025;28;20550;-51
2023/10/23 08:33:21;;;;;;;8.93;6.30;;;13.20;99.90;;;;;;5186055;28;20190;-49
2023/10/23 08:35:51;;;;;;;6.20;5.07;;;13.30;99.90;;;;;;5189603;28;20234;-49
2023/10/23 08:38:22;;;;;;;7.43;5.40;;;13.40;99.90;;;;;;5187972;28;20455;-50
2023/10/23 08:40:56;;;;;;;6.73;5.90;;;13.40;99.90;;;;;;5191428;28;20189;-51
2023/10/23 08:43:27;;;;;;;8.13;5.93;;;13.50;99.90;;;;;;5189470;28;20195;-50
2023/10/23 08:46:00;;;;;;;8.53;5.83;;;13.60;99.90;;;;;;5173722;28;20552;-50
2023/10/23 08:48:31;;;;;;;5.93;5.10;;;13.70;99.90;;;;;;5188955;28;20234;-49
2023/10/23 08:51:03;;;;;;;8.30;6.27;;;13.70;99.90;;;;;;5190565;28;20465;-48
2023/10/23 08:53:38;;;;;;;8.80;6.50;;;13.70;99.90;;;;;;5188789;28;20431;-50
2023/10/23 08:56:10;;;;;;;6.63;5.93;;;13.70;99.90;;;;;;5190218;28;20438;-50
2023/10/23 08:58:47;;;;;;;8.17;6.53;;;13.80;99.90;;;;;;5188509;28;20470;-48
2023/10/23 09:01:18;;;;;;;13.00;7.30;;;13.80;99.90;;;;;;5190686;28;20458;-51
2023/10/23 09:03:48;;;;;;;10.47;7.87;;;13.90;99.90;;;;;;5189828;28;21143;-50
2023/10/23 09:06:20;;;;;;;6.57;5.80;;;14.00;99.90;;;;;;5194078;28;20466;-50
2023/10/23 09:08:51;;;;;;;12.37;6.80;;;14.10;99.90;;;;;;5207427;28;20204;-49
2023/10/23 09:11:39;;;;;;;6.47;5.87;;;14.10;99.90;;;;;;5189332;28;21067;-50
2023/10/23 09:14:31;;;;;;;7.13;6.43;;;14.10;99.90;;;;;;5192016;28;20927;-50
2023/10/23 09:17:05;;;;;;;7.60;6.23;;;14.20;99.90;;;;;;5191344;28;20527;-49
2023/10/23 09:19:36;;;;;;;7.40;6.27;;;14.40;99.90;;;;;;5195136;28;20455;-49
2023/10/23 09:22:07;;;;;;;6.23;5.67;;;14.50;99.90;;;;;;5191187;28;20502;-50
2023/10/23 09:24:38;;;;;;;10.07;6.53;;;14.60;99.90;;;;;;5191508;28;20211;-49
2023/10/23 09:27:08;;;;;;;5.77;5.27;;;14.80;99.90;;;;;;5195559;28;20184;-51
2023/10/23 09:29:39;;;;;;;5.27;4.87;;;14.80;99.90;;;;;;5207434;28;20204;-51
2023/10/23 09:32:10;;;;;;;11.10;6.30;;;15.00;99.90;;;;;;5191343;28;20211;-50
2023/10/23 09:34:42;;;;;;;9.73;6.47;;;15.10;99.90;;;;;;5191063;28;20191;-49
2023/10/23 09:37:13;;;;;;;7.37;4.90;;;15.20;99.90;;;;;;5187952;28;20427;-50
2023/10/23 09:39:45;;;;;;;8.13;5.07;;;15.20;99.90;;;;;;5185215;28;20555;-51
2023/10/23 09:42:15;;;;;;;5.80;5.27;;;15.30;99.90;;;;;;5186197;28;21509;-50
2023/10/23 09:44:46;;;;;;;10.43;5.07;;;15.30;99.90;;;;;;5180400;28;20505;-49
2023/10/23 09:47:18;;;;;;;4.93;4.50;;;15.20;99.90;;;;;;5177998;28;20894;-50
2023/10/23 09:49:54;;;;;;;4.40;4.10;;;15.20;99.90;;;;;;5185543;28;20212;-50
2023/10/23 09:52:26;;;;;;;8.77;5.07;;;15.30;99.90;;;;;;5181637;28;20813;-49
2023/10/23 09:55:04;;;;;;;8.87;4.83;;;15.30;99.90;;;;;;5186013;28;20447;-50
2023/10/23 09:57:42;;;;;;;7.13;4.23;;;15.30;99.90;;;;;;5179752;28;20422;-50
2023/10/23 10:00:13;;;;;;;6.17;4.97;;;15.20;99.90;;;;;;5186300;28;20467;-49
2023/10/23 10:02:49;;;;;;;5.13;4.63;;;15.30;99.90;;;;;;5179508;28;20522;-49
2023/10/23 10:05:58;;;;;;;7.57;5.00;;;15.50;99.90;;;;;;5186195;28;20435;-50
2023/10/23 10:08:37;;;;;;;4.90;4.53;;;15.80;99.90;;;;;;5170502;28;20471;-50
2023/10/23 10:11:07;;;;;;;6.67;5.27;;;16.20;99.90;;;;;;5183842;28;20488;-49
2023/10/23 10:13:39;;;;;;;5.87;5.03;;;16.60;99.90;;;;;;5191894;28;20902;-50
2023/10/23 10:16:12;;;;;;;6.60;4.73;;;16.70;99.90;;;;;;5188381;28;20803;-50
2023/10/23 10:18:43;;;;;;;5.23;4.30;;;16.90;99.90;;;;;;5188831;28;20458;-49
2023/10/23 10:21:22;;;;;;;5.33;4.27;;;17.00;99.90;;;;;;5189721;28;20416;-49
2023/10/23 10:23:54;;;;;;;6.00;4.87;;;17.10;99.90;;;;;;5185402;28;20450;-49
2023/10/23 10:26:25;;;;;;;5.37;4.90;;;17.30;99.90;;;;;;5184582;28;20497;-49
2023/10/23 10:29:05;;;;;;;8.27;5.33;;;17.30;99.90;;;;;;5182708;28;20539;-49
2023/10/23 10:32:14;;;;;;;5.97;4.80;;;17.10;99.90;;;;;;5183956;28;20558;-50
2023/10/23 10:34:45;;;;;;;7.10;5.00;;;17.00;99.90;;;;;;5142657;28;20448;-48
2023/10/23 10:37:16;;;;;;;6.77;5.20;;;17.10;99.90;;;;;;5185732;28;20443;-49
2023/10/23 10:39:50;;;;;;;7.33;4.30;;;17.20;99.90;;;;;;5183446;28;20266;-50
2023/10/23 10:42:34;;;;;;;4.97;4.57;;;17.20;99.90;;;;;;5186264;28;20514;-50
2023/10/23 10:45:13;;;;;;;5.20;4.60;;;17.20;99.90;;;;;;5184238;28;20439;-50
2023/10/23 10:47:46;;;;;;;5.73;4.57;;;17.10;99.90;;;;;;5184145;28;20438;-50
2023/10/23 10:50:34;;;;;;;5.43;4.93;;;17.00;99.90;;;;;;5184827;28;20467;-50
2023/10/23 10:53:07;;;;;;;4.40;4.00;;;16.70;99.90;;;;;;5179703;28;20450;-50
2023/10/23 10:55:41;;;;;;;5.00;4.63;;;16.40;99.90;;;;;;5197383;28;20438;-48
2023/10/23 10:58:13;;;;;;;8.50;5.70;;;16.40;99.90;;;;;;5182181;28;20983;-49
2023/10/23 11:00:45;;;;;;;5.87;5.30;;;16.30;99.90;;;;;;5184061;28;20922;-51
2023/10/23 11:03:17;;;;;;;5.47;5.07;;;16.40;99.90;;;;;;5184585;28;20428;-49
2023/10/23 11:05:51;;;;;;;7.60;6.07;;;16.30;99.90;;;;;;5182421;28;20943;-49
2023/10/23 11:08:22;;;;;;;10.97;6.50;;;16.20;99.90;;;;;;5183087;28;20459;-50
2023/10/23 11:10:54;;;;;;;58.33;25.40;;;16.10;99.90;;;;;;5181514;28;21020;-50
2023/10/23 11:13:25;;;;;;;9.00;6.50;;;16.00;99.90;;;;;;5186545;28;20292;-50
2023/10/23 11:15:56;;;;;;;11.37;7.90;;;15.90;99.90;;;;;;5182894;28;20788;-50
2023/10/23 11:18:30;;;;;;;7.60;5.37;;;15.80;99.90;;;;;;5185570;28;20620;-51
2023/10/23 11:21:00;;;;;;;17.87;8.93;;;15.60;99.90;;;;;;5178110;28;20196;-50
2023/10/23 11:23:31;;;;;;;13.60;9.07;;;15.60;99.90;;;;;;5200895;28;20942;-51
2023/10/23 11:26:03;;;;;;;10.20;6.30;;;15.50;99.90;;;;;;5186333;28;20219;-50
2023/10/23 11:28:34;;;;;;;4.97;4.57;;;15.40;99.90;;;;;;5183222;28;20462;-51
2023/10/23 11:31:05;;;;;;;8.93;6.47;;;15.40;99.90;;;;;;5196332;28;21108;-51
2023/10/23 11:33:36;;;;;;;10.67;8.67;;;15.50;99.90;;;;;;5195386;28;20206;-51
2023/10/23 11:36:07;;;;;;;7.77;6.63;;;15.50;99.90;;;;;;5192691;28;20272;-51
2023/10/23 11:38:38;;;;;;;13.83;7.57;;;15.50;99.90;;;;;;5196412;28;20486;-50
2023/10/23 11:41:09;;;;;;;8.87;5.70;;;15.50;99.90;;;;;;5189938;28;20489;-51
2023/10/23 11:43:46;;;;;;;9.97;6.90;;;15.40;99.90;;;;;;5187743;28;20534;-50
2023/10/23 11:46:17;;;;;;;4.80;4.33;;;15.60;99.90;;;;;;5188770;28;21163;-50
2023/10/23 11:48:47;;;;;;;5.97;5.40;;;15.70;99.90;;;;;;5188231;28;20463;-50
2023/10/23 11:51:18;;;;;;;8.27;5.57;;;15.90;99.90;;;;;;5209402;28;20274;-49
2023/10/23 11:53:49;;;;;;;7.13;4.90;;;16.20;99.90;;;;;;5193994;28;20548;-52
2023/10/23 11:56:25;;;;;;;6.43;5.90;;;16.40;99.90;;;;;;5187869;28;20192;-51
2023/10/23 11:58:56;;;;;;;6.10;5.50;;;16.50;99.90;;;;;;5190110;28;20199;-50
2023/10/23 12:01:26;;;;;;;4.57;4.17;;;16.50;99.90;;;;;;5186543;28;20450;-50
2023/10/23 12:03:57;;;;;;;5.33;4.93;;;16.40;99.90;;;;;;5189766;28;20179;-51
2023/10/23 12:06:28;;;;;;;4.87;4.47;;;16.30;99.90;;;;;;5192484;28;20551;-51
2023/10/23 12:08:59;;;;;;;4.50;4.20;;;16.30;99.90;;;;;;5192278;28;20253;-50
2023/10/23 12:11:31;;;;;;;4.73;4.47;;;16.40;99.90;;;;;;5192898;28;21001;-50
2023/10/23 12:14:03;;;;;;;4.37;4.10;;;16.60;99.90;;;;;;5191149;28;20434;-54
2023/10/23 12:16:33;;;;;;;5.13;4.73;;;16.70;99.90;;;;;;5190355;28;20442;-50
2023/10/23 12:19:04;;;;;;;4.10;3.80;;;16.70;99.90;;;;;;5189447;28;20785;-51
2023/10/23 12:21:35;;;;;;;4.30;3.90;;;16.80;99.90;;;;;;5188657;28;20649;-51
2023/10/23 12:24:06;;;;;;;5.17;4.63;;;16.80;99.90;;;;;;5191686;28;20193;-51
2023/10/23 12:26:37;;;;;;;4.17;3.90;;;16.90;99.90;;;;;;5193028;28;20188;-50
2023/10/23 12:29:10;;;;;;;5.20;4.67;;;17.00;99.90;;;;;;5192621;28;20851;-50
2023/10/23 12:31:43;;;;;;;4.13;3.47;;;17.10;99.90;;;;;;5187142;28;20642;-50
2023/10/23 12:34:14;;;;;;;5.00;4.57;;;16.90;99.90;;;;;;5186345;28;20448;-52
2023/10/23 12:36:44;;;;;;;8.73;6.17;;;16.70;99.90;;;;;;5190583;28;20485;-51
2023/10/23 12:39:17;;;;;;;4.43;4.03;;;16.60;99.90;;;;;;5188941;28;20346;-51
2023/10/23 12:41:48;;;;;;;9.07;4.90;;;16.60;99.90;;;;;;5183456;28;20266;-49
2023/10/23 12:44:19;;;;;;;4.03;3.70;;;16.60;99.90;;;;;;5191274;28;20458;-50
2023/10/23 12:46:50;;;;;;;7.13;4.27;;;16.60;99.90;;;;;;5185822;28;20199;-51
2023/10/23 12:49:21;;;;;;;8.20;5.13;;;16.60;99.90;;;;;;5189511;28;20220;-49
2023/10/23 12:51:51;;;;;;;9.17;7.23;;;16.70;99.90;;;;;;5190715;28;20268;-50
2023/10/23 12:54:25;;;;;;;5.20;4.73;;;16.60;99.90;;;;;;5182832;28;20184;-51
2023/10/23 12:56:57;;;;;;;4.07;3.70;;;16.60;99.90;;;;;;5186412;28;20431;-51
2023/10/23 12:59:28;;;;;;;3.67;3.33;;;16.50;99.90;;;;;;5184773;28;20454;-50
2023/10/23 13:01:59;;;;;;;5.33;4.10;;;16.50;99.90;;;;;;5189696;28;20473;-51
2023/10/23 13:04:30;;;;;;;3.50;3.30;;;16.50;99.90;;;;;;5183218;28;20202;-52
2023/10/23 13:07:01;;;;;;;4.00;3.07;;;16.60;99.90;;;;;;5186167;28;20767;-51
2023/10/23 13:09:32;;;;;;;2.50;2.40;;;16.50;99.90;;;;;;5180094;28;20451;-49
2023/10/23 13:12:03;;;;;;;3.20;2.90;;;16.40;99.90;;;;;;5185166;28;20216;-50
2023/10/23 13:14:33;;;;;;;3.00;2.90;;;16.40;99.90;;;;;;5179138;28;20195;-51